createdAt,value
2023-01-09T00:01:22.513Z,98556.56
2023-01-09T00:03:50.234Z,98554.91
2023-01-09T00:06:17.989Z,98549.59
2023-01-09T00:08:45.753Z,98560.34
2023-01-09T00:11:13.559Z,98554.72
2023-01-09T00:13:41.311Z,98557.94
2023-01-09T00:16:10.880Z,98561.56
2023-01-09T00:18:38.667Z,98553.63
2023-01-09T00:21:11.428Z,98549.97
2023-01-09T00:23:39.362Z,98547.03
2023-01-09T00:26:09.177Z,98538.81
2023-01-09T00:28:37.693Z,98533.09
2023-01-09T00:31:06.800Z,98529.31
2023-01-09T00:33:39.624Z,98525.81
2023-01-09T00:36:08.184Z,98523.84
2023-01-09T00:38:37.256Z,98525.34
2023-01-09T00:41:07.191Z,98528.16
2023-01-09T00:43:39.623Z,98532.31
2023-01-09T00:46:08.918Z,98530.19
2023-01-09T00:48:40.019Z,98532.84
2023-01-09T00:51:08.969Z,98519.72
2023-01-09T00:53:40.419Z,98532.84
2023-01-09T00:56:12.429Z,98529.38
2023-01-09T00:58:40.545Z,98534.53
2023-01-09T01:01:08.548Z,98535.22
2023-01-09T01:03:36.565Z,98528.06
2023-01-09T01:06:23.537Z,98531.94
2023-01-09T01:08:51.291Z,98523.59
2023-01-09T01:11:18.985Z,98532.09
2023-01-09T01:13:46.722Z,98535.41
2023-01-09T01:16:15.256Z,98540.88
2023-01-09T01:18:42.977Z,98528.00
2023-01-09T01:21:14.232Z,98524.13
2023-01-09T01:23:42.279Z,98527.31
2023-01-09T01:26:12.710Z,98529.97
2023-01-09T01:28:40.686Z,98527.53
2023-01-09T01:31:08.706Z,98529.06
2023-01-09T01:33:36.950Z,98537.16
2023-01-09T01:36:05.812Z,98536.22
2023-01-09T01:38:35.566Z,98540.63
2023-01-09T01:41:04.097Z,98532.53
2023-01-09T01:43:54.238Z,98543.50
2023-01-09T01:46:22.128Z,98553.28
2023-01-09T01:48:54.999Z,98551.94
2023-01-09T01:51:24.851Z,98555.25
2023-01-09T01:53:58.618Z,98553.44
2023-01-09T01:56:29.705Z,98561.94
2023-01-09T01:59:02.304Z,98568.06
2023-01-09T02:01:32.965Z,98565.41
2023-01-09T02:04:02.906Z,98570.03
2023-01-09T02:06:31.557Z,98572.84
2023-01-09T02:09:01.624Z,98574.81
2023-01-09T02:11:30.019Z,98570.22
2023-01-09T02:13:57.922Z,98565.59
2023-01-09T02:16:37.494Z,98567.09
2023-01-09T02:19:20.436Z,98563.75
2023-01-09T02:22:03.315Z,98568.91
2023-01-09T02:24:59.117Z,98570.72
2023-01-09T02:27:55.669Z,98574.50
2023-01-09T02:30:32.615Z,98569.53
2023-01-09T02:33:09.915Z,98569.66
2023-01-09T02:35:51.268Z,98580.44
2023-01-09T02:38:27.722Z,98589.53
2023-01-09T02:41:01.722Z,98590.34
2023-01-09T02:43:30.298Z,98590.50
2023-01-09T02:45:59.340Z,98594.28
2023-01-09T02:48:27.052Z,98590.81
2023-01-09T02:51:04.030Z,98596.94
2023-01-09T02:53:55.133Z,98607.56
2023-01-09T02:56:48.743Z,98611.72
2023-01-09T02:59:25.396Z,98617.84
2023-01-09T03:02:08.842Z,98617.69
2023-01-09T03:04:46.794Z,98626.34
2023-01-09T03:07:22.794Z,98622.72
2023-01-09T03:09:53.726Z,98624.91
2023-01-09T03:12:24.731Z,98626.59
2023-01-09T03:14:56.660Z,98636.06
2023-01-09T03:17:29.559Z,98639.84
2023-01-09T03:19:58.026Z,98645.84
2023-01-09T03:22:25.990Z,98646.81
2023-01-09T03:24:53.705Z,98637.34
2023-01-09T03:27:21.635Z,98633.00
2023-01-09T03:29:49.376Z,98638.63
2023-01-09T03:32:17.097Z,98642.72
2023-01-09T03:34:46.216Z,98639.25
2023-01-09T03:37:13.947Z,98645.66
2023-01-09T03:39:43.354Z,98660.19
2023-01-09T03:42:11.067Z,98653.25
2023-01-09T03:44:38.768Z,98651.56
2023-01-09T03:47:06.504Z,98663.84
2023-01-09T03:49:34.192Z,98670.13
2023-01-09T03:52:03.244Z,98679.63
2023-01-09T03:54:31.012Z,98688.53
2023-01-09T03:56:58.705Z,98693.25
2023-01-09T03:59:26.523Z,98712.28
2023-01-09T04:01:54.755Z,98718.25
2023-01-09T04:04:22.642Z,98732.81
2023-01-09T04:06:50.337Z,98743.78
2023-01-09T04:09:19.448Z,98750.38
2023-01-09T04:11:47.085Z,98747.03
2023-01-09T04:14:15.023Z,98744.78
2023-01-09T04:16:42.764Z,98756.66
2023-01-09T04:19:10.527Z,98764.22
2023-01-09T04:21:38.203Z,98775.81
2023-01-09T04:24:06.797Z,98780.97
2023-01-09T04:26:35.893Z,98794.78
2023-01-09T04:29:03.586Z,98803.88
2023-01-09T04:31:31.300Z,98819.94
2023-01-09T04:33:58.954Z,98817.56
2023-01-09T04:36:26.670Z,98820.88
2023-01-09T04:38:54.335Z,98813.31
2023-01-09T04:41:35.937Z,98825.06
2023-01-09T04:44:05.026Z,98826.34
2023-01-09T04:46:32.727Z,98822.16
2023-01-09T04:49:00.427Z,98828.56
2023-01-09T04:51:28.135Z,98835.25
2023-01-09T04:53:55.871Z,98842.25
2023-01-09T04:56:23.635Z,98838.50
2023-01-09T04:58:51.393Z,98832.22
2023-01-09T05:01:20.592Z,98837.78
2023-01-09T05:03:48.321Z,98847.69
2023-01-09T05:06:16.065Z,98841.16
2023-01-09T05:08:43.778Z,98850.22
2023-01-09T05:11:11.489Z,98858.50
2023-01-09T05:13:39.221Z,98863.50
2023-01-09T05:16:07.672Z,98869.94
2023-01-09T05:18:37.333Z,98878.03
2023-01-09T05:21:05.526Z,98880.41
2023-01-09T05:23:33.273Z,98886.13
2023-01-09T05:26:00.983Z,98882.38
2023-01-09T05:28:28.735Z,98877.91
2023-01-09T05:30:56.393Z,98884.22
2023-01-09T05:33:24.283Z,98882.66
2023-01-09T05:35:53.365Z,98883.63
2023-01-09T05:38:21.088Z,98887.81
2023-01-09T05:40:48.846Z,98895.50
2023-01-09T05:43:16.606Z,98902.31
2023-01-09T05:45:44.647Z,98900.66
2023-01-09T05:48:12.460Z,98920.84
2023-01-09T05:50:40.161Z,98918.38
2023-01-09T05:53:09.307Z,98931.75
2023-01-09T05:55:37.176Z,98914.72
2023-01-09T05:58:04.819Z,98922.78
2023-01-09T06:00:32.653Z,98923.22
2023-01-09T06:03:00.571Z,98916.53
2023-01-09T06:05:28.325Z,98922.66
2023-01-09T06:07:56.101Z,98915.84
2023-01-09T06:10:25.150Z,98930.22
2023-01-09T06:12:54.623Z,98928.25
2023-01-09T06:15:22.445Z,98946.22
2023-01-09T06:17:50.135Z,98946.47
2023-01-09T06:20:18.066Z,98950.69
2023-01-09T06:22:45.873Z,98956.69
2023-01-09T06:25:14.120Z,98959.34
2023-01-09T06:27:43.159Z,98965.06
2023-01-09T06:30:12.486Z,98958.78
2023-01-09T06:32:40.147Z,98952.09
2023-01-09T06:35:08.431Z,98955.03
2023-01-09T06:37:36.237Z,98956.31
2023-01-09T06:40:04.167Z,98958.38
2023-01-09T06:42:31.898Z,98962.84
2023-01-09T06:45:01.082Z,98961.03
2023-01-09T06:47:28.866Z,98967.31
2023-01-09T06:49:57.631Z,98968.16
2023-01-09T06:52:25.359Z,98967.72
2023-01-09T06:54:53.042Z,98988.34
2023-01-09T06:59:48.572Z,98987.66
2023-01-09T07:02:20.125Z,98992.00
2023-01-09T07:04:48.003Z,98987.41
2023-01-09T07:07:16.263Z,98990.88
2023-01-09T07:09:44.003Z,98987.53
2023-01-09T07:12:12.816Z,98987.66
2023-01-09T07:14:40.556Z,98988.78
2023-01-09T07:17:08.362Z,98996.88
2023-01-09T07:19:37.399Z,98988.78
2023-01-09T07:22:05.276Z,98999.78
2023-01-09T07:24:33.123Z,98999.97
2023-01-09T07:27:00.863Z,98994.22
2023-01-09T07:29:28.709Z,99004.41
2023-01-09T07:31:56.770Z,99006.34
2023-01-09T07:34:24.678Z,99008.41
2023-01-09T07:36:53.852Z,99008.28
2023-01-09T07:39:21.874Z,99017.22
2023-01-09T07:41:49.747Z,99016.78
2023-01-09T07:44:17.543Z,99023.91
2023-01-09T07:46:45.513Z,99024.47
2023-01-09T07:49:13.429Z,99025.28
2023-01-09T07:51:44.580Z,99022.94
2023-01-09T07:54:14.009Z,99029.19
2023-01-09T07:56:42.006Z,99042.44
2023-01-09T07:59:09.793Z,99029.44
2023-01-09T08:01:38.785Z,99028.47
2023-01-09T08:04:07.060Z,99034.03
2023-01-09T08:06:34.955Z,99037.66
2023-01-09T08:09:02.912Z,99042.25
2023-01-09T08:11:32.407Z,99034.56
2023-01-09T08:14:00.189Z,99032.09
2023-01-09T08:16:28.112Z,99047.28
2023-01-09T08:18:55.896Z,99033.03
2023-01-09T08:21:23.803Z,99036.69
2023-01-09T08:23:51.582Z,99038.88
2023-01-09T08:26:19.635Z,99036.94
2023-01-09T08:28:48.759Z,99041.81
2023-01-09T08:31:17.136Z,99045.13
2023-01-09T08:33:45.180Z,99046.81
2023-01-09T08:36:13.008Z,99049.63
2023-01-09T08:38:41.034Z,99052.81
2023-01-09T08:41:22.647Z,99057.28
2023-01-09T08:44:08.979Z,99054.88
2023-01-09T08:46:54.485Z,99062.13
2023-01-09T08:49:22.673Z,99070.06
2023-01-09T08:51:50.597Z,99065.59
2023-01-09T08:54:18.389Z,99064.66
2023-01-09T08:56:46.394Z,99067.75
2023-01-09T08:59:17.031Z,99061.22
2023-01-09T09:01:45.795Z,99064.97
2023-01-09T09:04:13.818Z,99072.84
2023-01-09T09:06:42.183Z,99059.31
2023-01-09T09:09:09.928Z,99067.13
2023-01-09T09:11:37.963Z,99064.91
2023-01-09T09:14:26.929Z,99068.69
2023-01-09T09:16:56.582Z,99068.84
2023-01-09T09:19:24.710Z,99060.91
2023-01-09T09:21:52.616Z,99071.91
2023-01-09T09:24:21.008Z,99075.53
2023-01-09T09:26:49.086Z,99074.84
2023-01-09T09:29:17.045Z,99069.41
2023-01-09T09:31:45.234Z,99071.91
2023-01-09T09:34:14.745Z,99073.03
2023-01-09T09:36:42.737Z,99081.38
2023-01-09T09:39:10.799Z,99075.84
2023-01-09T09:42:25.797Z,99077.38
2023-01-09T09:45:08.282Z,99075.31
2023-01-09T09:47:45.941Z,99066.94
2023-01-09T09:50:29.815Z,99050.47
2023-01-09T09:53:04.758Z,99060.38
2023-01-09T09:55:35.632Z,99058.88
2023-01-09T09:58:08.933Z,99061.09
2023-01-09T10:00:37.535Z,99057.59
2023-01-09T10:03:09.625Z,99059.56
2023-01-09T10:05:42.823Z,99054.78
2023-01-09T10:08:21.197Z,99072.66
2023-01-09T10:10:54.569Z,99063.88
2023-01-09T10:13:43.732Z,99064.47
2023-01-09T10:16:26.187Z,99069.59
2023-01-09T10:19:08.708Z,99068.78
2023-01-09T10:21:47.764Z,99074.50
2023-01-09T10:24:39.562Z,99083.28
2023-01-09T10:27:19.043Z,99078.78
2023-01-09T10:30:20.772Z,99094.28
2023-01-09T10:33:01.446Z,99084.78
2023-01-09T10:35:48.520Z,99092.75
2023-01-09T10:38:24.019Z,99084.69
2023-01-09T10:41:01.450Z,99078.97
2023-01-09T10:43:36.016Z,99089.69
2023-01-09T10:46:11.014Z,99094.00
2023-01-09T10:48:42.757Z,99084.69
2023-01-09T10:51:18.577Z,99083.84
2023-01-09T10:53:51.174Z,99078.66
2023-01-09T10:56:24.079Z,99084.53
2023-01-09T10:58:52.603Z,99074.84
2023-01-09T11:01:27.396Z,99069.66
2023-01-09T11:03:55.760Z,99064.47
2023-01-09T11:06:27.175Z,99065.19
2023-01-09T11:08:59.879Z,99065.09
2023-01-09T11:11:35.506Z,99062.31
2023-01-09T11:14:14.012Z,99067.63
2023-01-09T11:16:52.852Z,99076.59
2023-01-09T11:19:20.739Z,99075.47
2023-01-09T11:21:48.702Z,99068.50
2023-01-09T11:24:30.950Z,99079.09
2023-01-09T11:27:27.632Z,99081.59
2023-01-09T11:30:27.855Z,99087.19
2023-01-09T11:32:57.844Z,99085.81
2023-01-09T11:35:33.740Z,99083.97
2023-01-09T11:38:07.026Z,99088.34
2023-01-09T11:40:47.027Z,99088.00
2023-01-09T11:43:19.685Z,99078.78
2023-01-09T11:46:00.548Z,99067.66
2023-01-09T11:48:33.232Z,99073.91
2023-01-09T11:51:03.210Z,99067.66
2023-01-09T11:53:45.868Z,99071.00
2023-01-09T11:56:16.387Z,99066.94
2023-01-09T11:58:44.716Z,99078.81
2023-01-09T12:01:27.199Z,99071.03
2023-01-09T12:04:16.343Z,99081.31
2023-01-09T12:06:55.048Z,99077.13
2023-01-09T12:09:30.071Z,99086.63
2023-01-09T12:12:05.736Z,99075.63
2023-01-09T12:14:43.208Z,99070.72
2023-01-09T12:17:36.881Z,99066.09
2023-01-09T12:20:23.837Z,99079.38
2023-01-09T12:22:59.458Z,99082.72
2023-01-09T12:25:38.607Z,99079.69
2023-01-09T12:28:40.254Z,99079.66
2023-01-09T12:31:23.045Z,99081.44
2023-01-09T12:34:01.356Z,99083.28
2023-01-09T12:36:39.987Z,99085.22
2023-01-09T12:39:24.156Z,99097.94
2023-01-09T12:42:11.766Z,99096.13
2023-01-09T12:44:50.209Z,99106.72
2023-01-09T12:47:39.897Z,99108.69
2023-01-09T12:50:35.591Z,99109.66
2023-01-09T12:53:12.410Z,99102.00
2023-01-09T12:55:44.339Z,99100.44
2023-01-09T12:58:20.007Z,99093.03
2023-01-09T13:00:52.853Z,99093.47
2023-01-09T13:03:22.778Z,99089.00
2023-01-09T13:05:53.279Z,99086.09
2023-01-09T13:08:26.863Z,99084.53
2023-01-09T13:11:03.322Z,99084.28
2023-01-09T13:13:41.291Z,99085.38
2023-01-09T13:16:15.481Z,99092.06
2023-01-09T13:18:48.363Z,99085.50
2023-01-09T13:21:16.656Z,99088.00
2023-01-09T13:23:51.998Z,99086.88
2023-01-09T13:26:25.553Z,99095.25
2023-01-09T13:28:59.902Z,99097.78
2023-01-09T13:31:53.126Z,99099.56
2023-01-09T13:34:24.498Z,99102.66
2023-01-09T13:36:54.683Z,99108.78
2023-01-09T13:39:25.302Z,99096.31
2023-01-09T13:42:16.037Z,99102.06
2023-01-09T13:44:44.963Z,99110.31
2023-01-09T13:47:20.709Z,99108.34
2023-01-09T13:50:21.915Z,99113.13
2023-01-09T13:52:50.007Z,99112.13
2023-01-09T13:55:30.118Z,99116.75
2023-01-09T13:58:22.826Z,99112.44
2023-01-09T14:00:59.772Z,99104.63
2023-01-09T14:03:33.106Z,99114.69
2023-01-09T14:06:20.063Z,99123.59
2023-01-09T14:08:50.431Z,99121.38
2023-01-09T14:11:27.288Z,99123.91
2023-01-09T14:14:05.820Z,99131.88
2023-01-09T14:16:33.986Z,99133.41
2023-01-09T14:19:20.131Z,99135.09
2023-01-09T14:21:53.517Z,99153.66
2023-01-09T14:24:26.111Z,99159.56
2023-01-09T14:26:57.197Z,99157.47
2023-01-09T14:29:47.457Z,99153.69
2023-01-09T14:32:47.428Z,99168.09
2023-01-09T14:35:24.307Z,99180.22
2023-01-09T14:38:04.585Z,99170.59
2023-01-09T14:40:34.442Z,99192.53
2023-01-09T14:43:13.022Z,99198.34
2023-01-09T14:45:44.661Z,99197.06
2023-01-09T14:48:13.835Z,99201.09
2023-01-09T14:50:51.045Z,99202.63
2023-01-09T14:53:23.034Z,99206.38
2023-01-09T14:55:53.674Z,99203.56
2023-01-09T14:58:24.031Z,99218.34
2023-01-09T15:00:59.543Z,99218.50
2023-01-09T15:03:33.208Z,99222.69
2023-01-09T15:06:02.674Z,99229.53
2023-01-09T15:08:30.814Z,99231.78
2023-01-09T15:11:01.657Z,99243.47
2023-01-09T15:13:34.939Z,99249.88
2023-01-09T15:16:10.264Z,99249.88
2023-01-09T15:18:43.044Z,99243.03
2023-01-09T15:21:19.303Z,99243.75
2023-01-09T15:23:47.139Z,99252.28
2023-01-09T15:26:24.502Z,99263.81
2023-01-09T15:28:54.013Z,99265.31
2023-01-09T15:31:25.063Z,99271.66
2023-01-09T15:33:54.161Z,99270.94
2023-01-09T15:36:25.766Z,99280.47
2023-01-09T15:38:54.963Z,99281.06
2023-01-09T15:41:44.181Z,99277.53
2023-01-09T15:44:16.000Z,99283.66
2023-01-09T15:46:46.310Z,99292.13
2023-01-09T15:49:15.346Z,99291.91
2023-01-09T15:51:47.178Z,99293.53
2023-01-09T15:54:16.493Z,99288.72
2023-01-09T15:56:46.384Z,99294.88
2023-01-09T15:59:25.132Z,99304.19
2023-01-09T16:02:20.933Z,99308.63
2023-01-09T16:04:50.015Z,99313.53
2023-01-09T16:07:22.193Z,99321.59
2023-01-09T16:09:52.867Z,99328.72
2023-01-09T16:12:23.412Z,99325.94
2023-01-09T16:14:54.068Z,99327.63
2023-01-09T16:17:26.706Z,99339.63
2023-01-09T16:19:57.945Z,99335.44
2023-01-09T16:22:29.060Z,99347.84
2023-01-09T16:25:00.954Z,99347.13
2023-01-09T16:27:30.838Z,99354.94
2023-01-09T16:29:59.904Z,99359.03
2023-01-09T16:32:31.000Z,99363.13
2023-01-09T16:35:04.696Z,99361.28
2023-01-09T16:37:36.240Z,99370.47
2023-01-09T16:40:24.439Z,99363.47
2023-01-09T16:43:00.499Z,99369.13
2023-01-09T16:45:30.370Z,99378.63
2023-01-09T16:47:58.952Z,99382.22
2023-01-09T16:50:27.493Z,99379.78
2023-01-09T16:52:57.810Z,99396.16
2023-01-09T16:55:25.936Z,99406.06
2023-01-09T16:57:54.053Z,99407.25
2023-01-09T17:00:23.231Z,99423.44
2023-01-09T17:02:51.984Z,99427.16
2023-01-09T17:05:19.935Z,99427.03
2023-01-09T17:07:47.876Z,99431.38
2023-01-09T17:10:22.853Z,99440.03
2023-01-09T17:12:50.886Z,99441.16
2023-01-09T17:15:18.688Z,99444.00
2023-01-09T17:17:49.439Z,99448.72
2023-01-09T17:20:18.934Z,99448.97
2023-01-09T17:22:46.753Z,99458.97
2023-01-09T17:25:33.522Z,99453.31
2023-01-09T17:28:22.304Z,99461.72
2023-01-09T17:30:50.095Z,99459.69
2023-01-09T17:33:19.599Z,99462.94
2023-01-09T17:35:47.427Z,99476.78
2023-01-09T17:38:15.951Z,99470.53
2023-01-09T17:40:44.691Z,99489.41
2023-01-09T17:43:14.096Z,99487.97
2023-01-09T17:45:42.701Z,99497.00
2023-01-09T17:48:16.404Z,99498.09
2023-01-09T17:50:44.791Z,99514.81
2023-01-09T17:53:13.048Z,99511.31
2023-01-09T17:55:41.554Z,99526.59
2023-01-09T17:58:11.566Z,99522.25
2023-01-09T18:00:40.741Z,99530.78
2023-01-09T18:03:08.558Z,99546.31
2023-01-09T18:05:37.038Z,99543.41
2023-01-09T18:08:05.798Z,99546.78
2023-01-09T18:10:33.661Z,99548.84
2023-01-09T18:13:01.700Z,99551.00
2023-01-09T18:15:29.475Z,99554.63
2023-01-09T18:17:58.961Z,99554.97
2023-01-09T18:20:26.847Z,99564.34
2023-01-09T18:22:54.767Z,99566.50
2023-01-09T18:25:22.502Z,99587.22
2023-01-09T18:27:50.347Z,99588.88
2023-01-09T18:30:18.746Z,99595.63
2023-01-09T18:32:46.461Z,99603.06
2023-01-09T18:35:15.850Z,99612.69
2023-01-09T18:37:43.638Z,99611.34
2023-01-09T18:40:12.690Z,99621.31
2023-01-09T18:42:40.963Z,99623.75
2023-01-09T18:45:10.135Z,99631.88
2023-01-09T18:47:37.988Z,99621.66
2023-01-09T18:50:06.685Z,99639.00
2023-01-09T18:52:36.352Z,99637.28
2023-01-09T18:55:05.007Z,99641.63
2023-01-09T18:57:32.747Z,99636.09
2023-01-09T19:00:00.841Z,99640.81
2023-01-09T19:02:29.579Z,99637.28
2023-01-09T19:04:57.996Z,99651.25
2023-01-09T19:07:26.570Z,99657.63
2023-01-09T19:09:56.239Z,99660.50
2023-01-09T19:12:24.162Z,99663.16
2023-01-09T19:14:53.108Z,99658.91
2023-01-09T19:17:21.237Z,99661.06
2023-01-09T19:19:50.077Z,99662.84
2023-01-09T19:22:18.154Z,99666.56
2023-01-09T19:24:46.213Z,99666.94
2023-01-09T19:27:15.707Z,99677.03
2023-01-09T19:29:43.863Z,99683.16
2023-01-09T19:32:13.991Z,99685.19
2023-01-09T19:34:42.109Z,99687.97
2023-01-09T19:37:10.312Z,99696.75
2023-01-09T19:39:38.420Z,99695.03
2023-01-09T19:42:06.692Z,99696.94
2023-01-09T19:44:35.842Z,99699.50
2023-01-09T19:47:04.200Z,99700.94
2023-01-09T19:49:32.950Z,99705.91
2023-01-09T19:52:01.560Z,99705.16
2023-01-09T19:54:30.373Z,99714.56
2023-01-09T19:56:58.545Z,99715.75
2023-01-09T19:59:26.801Z,99717.84
2023-01-09T20:01:56.006Z,99716.06
2023-01-09T20:04:24.055Z,99720.25
2023-01-09T20:06:53.362Z,99735.63
2023-01-09T20:09:22.607Z,99735.63
2023-01-09T20:11:50.376Z,99739.53
2023-01-09T20:14:20.069Z,99750.38
2023-01-09T20:16:48.508Z,99753.13
2023-01-09T20:19:18.276Z,99755.13
2023-01-09T20:21:46.206Z,99763.31
2023-01-09T20:24:16.753Z,99767.00
2023-01-09T20:26:46.135Z,99761.09
2023-01-09T20:29:14.436Z,99762.03
2023-01-09T20:31:42.301Z,99769.88
2023-01-09T20:34:12.900Z,99772.16
2023-01-09T20:36:42.403Z,99775.34
2023-01-09T20:39:12.316Z,99774.91
2023-01-09T20:41:40.701Z,99773.81
2023-01-09T20:44:12.407Z,99776.03
2023-01-09T20:46:42.385Z,99778.34
2023-01-09T20:49:13.463Z,99779.94
2023-01-09T20:51:46.724Z,99779.38
2023-01-09T20:54:15.644Z,99783.59
2023-01-09T20:56:43.749Z,99780.28
2023-01-09T20:59:14.003Z,99790.06
2023-01-09T21:01:41.997Z,99786.91
2023-01-09T21:04:10.825Z,99788.09
2023-01-09T21:06:38.794Z,99790.88
2023-01-09T21:09:08.403Z,99797.94
2023-01-09T21:11:36.442Z,99802.56
2023-01-09T21:14:04.445Z,99809.53
2023-01-09T21:16:32.601Z,99806.78
2023-01-09T21:19:00.710Z,99812.19
2023-01-09T21:21:28.754Z,99811.88
2023-01-09T21:23:58.897Z,99815.44
2023-01-09T21:26:30.641Z,99811.34
2023-01-09T21:29:00.680Z,99831.88
2023-01-09T21:31:33.997Z,99833.81
2023-01-09T21:34:03.391Z,99836.25
2023-01-09T21:36:31.261Z,99835.72
2023-01-09T21:38:59.616Z,99851.50
2023-01-09T21:41:47.861Z,99851.16
2023-01-09T21:44:33.287Z,99853.06
2023-01-09T21:47:02.842Z,99854.97
2023-01-09T21:49:34.928Z,99861.00
2023-01-09T21:52:04.106Z,99857.31
2023-01-09T21:54:32.263Z,99866.91
2023-01-09T21:57:02.056Z,99871.91
2023-01-09T21:59:30.353Z,99870.59
2023-01-09T22:01:59.023Z,99877.69
2023-01-09T22:04:29.087Z,99883.72
2023-01-09T22:06:57.068Z,99887.34
2023-01-09T22:09:25.120Z,99890.09
2023-01-09T22:11:52.968Z,99889.34
2023-01-09T22:14:23.045Z,99892.22
2023-01-09T22:16:51.612Z,99895.84
2023-01-09T22:19:19.934Z,99909.69
2023-01-09T22:21:50.184Z,99912.09
2023-01-09T22:24:20.067Z,99902.50
2023-01-09T22:26:47.810Z,99910.53
2023-01-09T22:29:16.405Z,99912.56
2023-01-09T22:31:46.336Z,99916.16
2023-01-09T22:34:16.116Z,99923.25
2023-01-09T22:36:44.741Z,99929.59
2023-01-09T22:39:14.147Z,99934.28
2023-01-09T22:41:42.860Z,99944.00
2023-01-09T22:44:10.915Z,99952.47
2023-01-09T22:46:39.051Z,99954.50
2023-01-09T22:49:08.096Z,99959.16
2023-01-09T22:51:36.177Z,99964.44
2023-01-09T22:54:04.165Z,99970.81
2023-01-09T22:56:32.230Z,99974.63
2023-01-09T22:59:00.960Z,99985.72
2023-01-09T23:01:29.095Z,99985.00
2023-01-09T23:03:56.846Z,99992.72
2023-01-09T23:06:26.472Z,100003.53
2023-01-09T23:08:54.569Z,100003.63
2023-01-09T23:11:38.043Z,100003.00
2023-01-09T23:14:07.224Z,100004.81
2023-01-09T23:16:35.338Z,100006.81
2023-01-09T23:19:03.111Z,100006.59
2023-01-09T23:21:32.455Z,100009.44
2023-01-09T23:24:00.242Z,100017.47
2023-01-09T23:26:28.305Z,100022.34
2023-01-09T23:28:56.049Z,100031.78
2023-01-09T23:31:23.915Z,100028.81
2023-01-09T23:33:51.710Z,100025.94
2023-01-09T23:36:22.567Z,100024.59
2023-01-09T23:38:51.707Z,100031.03
2023-01-09T23:41:19.748Z,100036.19
2023-01-09T23:43:46.759Z,100041.81
2023-01-09T23:46:14.925Z,100042.88
2023-01-09T23:48:42.851Z,100054.81
2023-01-09T23:51:10.858Z,100061.06
2023-01-09T23:53:38.857Z,100069.19
2023-01-09T23:56:08.263Z,100070.31
2023-01-09T23:58:37.090Z,100075.81
